Time;durP1;ratioP1;P1;durP2;ratioP2;P2;SDS_P1;SDS_P2;PMS_P1;PMS_P2;Temp;Humidity;BMP_temperature;BMP_pressure;BME280_temperature;BME280_humidity;BME280_pressure;Samples;Min_cycle;Max_cycle;Signal;HPM_P1;HPM_P2
2023/04/11 00:03:01;;;;;;;13.93;8.23;;;6.70;99.90;;;4.93;89.63;100240.22;10441460;27;96612;-94
2023/04/11 00:08:04;;;;;;;11.37;7.00;;;6.70;99.90;;;4.96;90.09;100242.59;10411754;28;96575;-95
2023/04/11 00:13:09;;;;;;;13.17;8.00;;;6.70;99.90;;;4.95;90.14;100246.19;10418080;27;96600;-94
2023/04/11 00:18:12;;;;;;;12.60;7.30;;;6.70;99.90;;;4.86;90.09;100225.06;10436988;27;96496;-93
2023/04/11 00:23:15;;;;;;;15.30;9.33;;;6.60;99.90;;;4.78;90.16;100246.78;10428711;27;96677;-94
2023/04/11 00:28:18;;;;;;;13.43;8.37;;;6.60;99.90;;;4.65;90.82;100239.09;10399445;28;96552;-94
2023/04/11 00:33:21;;;;;;;12.97;8.07;;;6.50;99.90;;;4.63;91.19;100238.41;10401550;28;96409;-94
2023/04/11 00:38:24;;;;;;;12.13;7.70;;;6.40;99.90;;;4.55;91.20;100227.66;10398304;27;96705;-93
2023/04/11 00:43:27;;;;;;;12.53;8.40;;;6.30;99.90;;;4.46;91.14;100223.19;10417640;28;96646;-94
2023/04/11 00:48:31;;;;;;;11.97;7.90;;;6.20;99.90;;;4.34;91.21;100211.03;10390276;28;96515;-93
2023/04/11 00:53:36;;;;;;;16.10;9.97;;;6.20;99.90;;;4.28;91.06;100207.97;10369918;28;96583;-93
2023/04/11 00:58:40;;;;;;;16.20;9.27;;;6.10;99.90;;;4.29;91.01;100211.41;10364761;28;96507;-93
2023/04/11 01:03:44;;;;;;;18.77;10.10;;;6.10;99.90;;;4.24;91.75;100200.44;10359740;28;96612;-93
2023/04/11 01:08:49;;;;;;;15.80;9.00;;;6.10;99.90;;;4.31;93.25;100201.59;10369920;28;97754;-95
2023/04/11 01:13:52;;;;;;;16.97;9.27;;;6.00;99.90;;;4.30;93.37;100199.94;10378745;28;96430;-94
2023/04/11 01:18:56;;;;;;;13.80;8.27;;;6.00;99.90;;;4.18;93.02;100182.53;10403709;28;96398;-94
2023/04/11 01:24:02;;;;;;;13.77;7.63;;;6.00;99.90;;;4.14;92.89;100181.97;10392731;28;97617;-94
2023/04/11 01:29:05;;;;;;;11.23;6.13;;;6.00;99.90;;;4.05;92.91;100189.78;10344739;28;96781;-95
2023/04/11 01:34:12;;;;;;;14.03;8.27;;;5.90;99.90;;;3.99;92.99;100189.31;10357374;28;98767;-95
2023/04/11 01:39:15;;;;;;;12.07;7.90;;;5.80;99.90;;;3.93;92.98;100186.34;10377474;28;96644;-95
2023/04/11 01:44:19;;;;;;;12.57;7.93;;;5.70;99.90;;;3.87;92.87;100171.91;10341015;28;96674;-95
2023/04/11 01:49:24;;;;;;;15.63;8.20;;;5.70;99.90;;;3.76;93.12;100183.31;10372442;28;96562;-94
2023/04/11 01:54:27;;;;;;;14.13;8.47;;;5.60;99.90;;;3.69;92.93;100178.69;10334725;28;96433;-95
2023/04/11 01:59:30;;;;;;;11.90;7.60;;;5.50;99.90;;;3.63;92.96;100179.16;10333228;28;96449;-94
2023/04/11 02:04:34;;;;;;;12.40;7.93;;;5.40;99.90;;;3.52;93.03;100164.25;10344750;28;96970;-94
2023/04/11 02:09:37;;;;;;;18.67;11.00;;;5.30;99.90;;;3.49;93.18;100162.72;10338368;28;98820;-94
2023/04/11 02:14:45;;;;;;;32.83;21.93;;;5.30;99.90;;;3.41;93.45;100159.03;10356615;28;96744;-94
2023/04/11 02:19:48;;;;;;;35.83;25.47;;;5.30;99.90;;;3.39;93.29;100151.28;10372418;28;96699;-94
2023/04/11 02:24:52;;;;;;;27.87;19.67;;;5.20;99.90;;;3.36;93.22;100145.44;10337939;28;96665;-93
2023/04/11 02:29:54;;;;;;;27.40;19.97;;;5.20;99.90;;;3.38;93.42;100152.25;10335352;28;96519;-93
2023/04/11 02:34:57;;;;;;;22.67;17.00;;;5.20;99.90;;;3.36;93.57;100142.81;10371331;28;97985;-93
2023/04/11 02:40:03;;;;;;;22.70;14.70;;;5.20;99.90;;;3.32;93.71;100139.59;10365397;28;96569;-93
2023/04/11 02:45:07;;;;;;;16.07;11.53;;;5.20;99.90;;;3.31;93.60;100137.09;10358322;28;96568;-93
2023/04/11 02:50:10;;;;;;;15.13;10.00;;;5.10;99.90;;;3.26;93.20;100129.59;10383559;28;97648;-93
2023/04/11 02:55:13;;;;;;;13.37;7.70;;;5.10;99.90;;;3.25;93.66;100127.94;10391143;28;96814;-95
2023/04/11 03:00:19;;;;;;;11.73;6.97;;;5.10;99.90;;;3.25;93.69;100140.22;10349707;28;96552;-94
2023/04/11 03:05:22;;;;;;;16.57;8.33;;;5.10;99.90;;;3.27;93.79;100141.75;10387298;28;96720;-95
2023/04/11 03:10:25;;;;;;;12.30;7.27;;;5.10;99.90;;;3.30;94.22;100141.53;10378754;28;96399;-93
2023/04/11 03:15:30;;;;;;;11.10;7.03;;;5.10;99.90;;;3.30;94.24;100141.53;10374027;28;96527;-95
2023/04/11 03:20:34;;;;;;;14.07;9.30;;;5.10;99.90;;;3.29;94.68;100134.59;10384735;28;96859;-93
2023/04/11 03:25:37;;;;;;;11.57;8.27;;;5.10;99.90;;;3.31;95.06;100130.06;10416246;28;96543;-94
2023/04/11 03:30:42;;;;;;;16.53;8.40;;;5.10;99.90;;;3.32;95.29;100131.72;10380070;28;96587;-93
2023/04/11 03:35:45;;;;;;;10.80;6.77;;;5.10;99.90;;;3.31;95.28;100137.94;10371241;28;98266;-93
2023/04/11 03:40:48;;;;;;;10.10;6.47;;;5.10;99.90;;;3.29;95.59;100128.50;10354999;28;97434;-94
2023/04/11 03:45:52;;;;;;;10.40;7.33;;;5.10;99.90;;;3.25;95.69;100125.31;10410049;28;96635;-94
2023/04/11 03:50:55;;;;;;;12.50;7.83;;;5.00;99.90;;;3.18;96.21;100117.09;10352508;28;98081;-95
2023/04/11 03:55:58;;;;;;;10.83;6.67;;;5.00;99.90;;;3.23;96.32;100127.19;10361577;28;96749;-94
2023/04/11 04:01:01;;;;;;;16.77;9.70;;;5.00;99.90;;;3.20;96.26;100141.41;10334200;28;96574;-93
2023/04/11 04:06:05;;;;;;;17.07;9.80;;;5.00;99.90;;;3.17;95.98;100135.56;10433506;27;96567;-93
2023/04/11 04:11:08;;;;;;;13.97;8.20;;;5.00;99.90;;;3.12;96.00;100127.22;10420332;28;97043;-92
2023/04/11 04:16:11;;;;;;;15.17;9.20;;;4.90;99.90;;;3.12;96.36;100127.22;10330982;28;96648;-92
2023/04/11 04:21:15;;;;;;;20.33;10.53;;;5.00;99.90;;;3.17;96.29;100125.06;10427534;28;96434;-91
2023/04/11 04:26:23;;;;;;;12.37;7.70;;;5.00;99.90;;;3.23;96.62;100125.41;10401658;28;96463;-92
2023/04/11 04:31:28;;;;;;;11.30;7.13;;;5.00;99.90;;;3.32;97.07;100128.25;10339867;28;97311;-92
2023/04/11 04:36:31;;;;;;;9.30;6.50;;;5.10;99.90;;;3.39;97.23;100119.75;10379097;28;98158;-92
2023/04/11 04:41:35;;;;;;;11.03;7.27;;;5.20;99.90;;;3.58;97.51;100129.59;10379128;28;98262;-92
2023/04/11 04:46:38;;;;;;;13.80;6.83;;;5.30;99.90;;;3.69;97.30;100112.97;10374168;28;99071;-91
2023/04/11 04:51:41;;;;;;;14.43;9.43;;;5.40;99.90;;;3.84;97.54;100116.97;10402267;27;96749;-90
2023/04/11 04:56:47;;;;;;;15.87;9.60;;;5.50;99.90;;;4.04;97.56;100110.06;10365010;28;96531;-91
2023/04/11 05:01:50;;;;;;;19.77;12.57;;;5.70;99.90;;;4.26;97.41;100114.38;10372620;28;98765;-91
2023/04/11 05:06:54;;;;;;;13.60;8.70;;;5.90;99.90;;;4.44;97.52;100114.59;10412798;27;96629;-91
2023/04/11 05:11:57;;;;;;;19.17;10.83;;;6.00;99.90;;;4.67;97.74;100117.88;10344021;28;96585;-92
2023/04/11 05:17:00;;;;;;;22.37;13.93;;;6.30;99.90;;;4.90;97.65;100114.09;10398797;28;96759;-88
2023/04/11 05:22:03;;;;;;;27.63;12.43;;;6.50;99.90;;;5.10;96.83;100107.94;10402547;27;98645;-91
2023/04/11 05:27:06;;;;;;;30.23;15.83;;;6.70;99.90;;;5.28;96.50;100102.84;10376101;28;96484;-93
2023/04/11 05:32:09;;;;;;;23.97;11.60;;;6.80;99.90;;;5.49;96.15;100092.16;10400399;28;97399;-91
2023/04/11 05:37:12;;;;;;;29.80;17.40;;;7.00;99.90;;;5.73;95.69;100090.94;10353656;28;98729;-91
2023/04/11 05:42:16;;;;;;;34.33;17.33;;;7.20;99.90;;;6.00;95.40;100091.09;10381541;28;96648;-90
2023/04/11 05:47:19;;;;;;;25.23;13.47;;;7.40;99.90;;;6.26;94.75;100082.56;10353891;28;97246;-92
2023/04/11 05:52:22;;;;;;;20.83;11.63;;;7.70;99.90;;;6.59;94.50;100076.72;10367810;28;97313;-89
2023/04/11 05:57:25;;;;;;;21.03;12.50;;;8.10;99.90;;;6.97;93.75;100064.34;10398602;27;97519;-89
2023/04/11 06:02:29;;;;;;;27.50;12.93;;;8.40;99.90;;;7.26;92.24;100045.66;10344419;28;97126;-87
2023/04/11 06:07:32;;;;;;;17.80;10.90;;;8.70;99.90;;;7.61;91.15;100052.72;10333680;28;96873;-87
2023/04/11 06:12:35;;;;;;;18.93;9.60;;;9.00;99.90;;;7.88;90.05;100035.94;10362273;28;97108;-87
2023/04/11 06:17:38;;;;;;;13.37;8.93;;;9.30;99.90;;;8.14;88.78;100046.53;10373631;28;98391;-87
2023/04/11 06:22:45;;;;;;;19.47;11.67;;;9.60;99.90;;;8.35;87.88;100037.38;10362567;28;96913;-87
2023/04/11 06:27:48;;;;;;;17.07;10.23;;;9.80;99.90;;;8.60;86.63;100036.53;10398027;28;98146;-87
2023/04/11 06:32:51;;;;;;;30.07;15.80;;;10.00;99.90;;;8.83;85.59;100034.97;10350618;28;98378;-87
2023/04/11 06:37:54;;;;;;;37.97;19.53;;;10.20;99.90;;;9.04;84.49;100033.72;10391525;28;97423;-88
2023/04/11 06:42:59;;;;;;;28.87;13.83;;;10.50;99.90;;;9.24;83.70;100019.19;10380725;28;97358;-87
2023/04/11 06:48:03;;;;;;;17.47;9.37;;;10.70;99.90;;;9.44;82.72;100029.47;10342421;28;96629;-89
2023/04/11 06:53:06;;;;;;;15.37;10.80;;;10.90;99.90;;;9.54;80.59;100024.84;10353650;28;96656;-88
2023/04/11 06:58:09;;;;;;;17.53;10.33;;;11.00;99.90;;;9.80;80.87;100008.75;10338420;28;97082;-88
2023/04/11 07:03:12;;;;;;;16.93;9.97;;;11.20;99.90;;;10.04;79.43;100011.38;10378340;28;96547;-88
2023/04/11 07:08:16;;;;;;;14.30;8.97;;;11.40;99.90;;;10.30;79.00;100010.34;10360010;28;96544;-89
2023/04/11 07:13:20;;;;;;;18.30;11.37;;;11.70;99.90;;;10.55;77.82;99997.78;10335536;28;98300;-88
2023/04/11 07:18:24;;;;;;;18.50;11.77;;;12.00;99.90;;;10.89;76.59;99990.31;10356870;28;96558;-88
2023/04/11 07:23:27;;;;;;;13.83;8.70;;;12.30;99.90;;;11.35;74.68;99986.88;10348394;28;96483;-89
2023/04/11 07:28:31;;;;;;;9.73;7.00;;;12.80;99.90;;;11.93;72.66;99983.53;10368405;28;96557;-88
2023/04/11 07:33:35;;;;;;;8.97;6.23;;;13.30;99.90;;;12.32;69.06;99985.97;10325647;28;96480;-88
2023/04/11 07:38:38;;;;;;;8.18;6.18;;;13.70;99.90;;;12.80;66.19;99974.88;10349465;28;98809;-88
2023/04/11 07:43:41;;;;;;;9.77;7.13;;;14.20;99.90;;;12.90;64.85;99982.59;10404355;28;98332;-90
2023/04/11 07:48:45;;;;;;;10.82;7.47;;;14.30;98.70;;;13.13;64.83;99976.06;10388273;28;98316;-90
2023/04/11 07:53:48;;;;;;;14.55;7.47;;;14.50;98.40;;;13.36;65.34;99967.88;10391382;28;96533;-91
2023/04/11 07:58:50;;;;;;;7.55;5.57;;;14.70;98.10;;;13.63;64.37;99968.94;10420812;28;96538;-91
2023/04/11 08:03:54;;;;;;;11.90;5.90;;;14.90;97.50;;;13.67;62.92;99956.03;10421585;27;96650;-91
2023/04/11 08:08:59;;;;;;;9.82;6.68;;;15.00;96.80;;;13.51;62.67;99959.00;10428204;28;96510;-91
2023/04/11 08:14:02;;;;;;;9.38;6.70;;;15.00;95.90;;;13.57;62.84;99956.38;10390885;28;98571;-91
2023/04/11 08:19:05;;;;;;;10.20;6.00;;;15.00;95.80;;;13.72;62.63;99945.59;10379761;27;96627;-90
2023/04/11 08:24:09;;;;;;;11.25;7.40;;;15.10;95.40;;;13.65;61.55;99920.69;10373299;28;96633;-90
2023/04/11 08:29:12;;;;;;;13.52;8.27;;;15.10;94.60;;;13.73;61.30;99917.84;10401232;28;97463;-91
2023/04/11 08:34:15;;;;;;;11.15;8.02;;;15.20;94.40;;;14.08;61.16;99910.69;10380505;28;97120;-91
2023/04/11 08:39:18;;;;;;;12.32;8.60;;;15.50;94.40;;;14.66;59.56;99881.75;10398727;28;98766;-90
2023/04/11 08:44:21;;;;;;;13.40;7.75;;;16.00;93.90;;;15.09;57.83;99881.41;10426546;28;96516;-87
2023/04/11 08:49:25;;;;;;;13.10;8.15;;;16.30;93.10;;;15.24;55.63;99867.84;10479437;27;96421;-92
2023/04/11 08:54:29;;;;;;;10.18;7.60;;;16.60;91.70;;;15.48;55.77;99863.69;10411252;27;96581;-91
2023/04/11 08:59:33;;;;;;;9.10;6.72;;;16.80;91.20;;;15.72;54.82;99847.00;10404496;28;98312;-90
2023/04/11 09:04:41;;;;;;;10.82;7.68;;;17.00;90.70;;;15.76;52.94;99848.19;10398816;28;96481;-90
2023/04/11 09:09:45;;;;;;;12.05;8.38;;;17.20;88.70;;;15.72;52.94;99855.03;10383878;28;96515;-91
2023/04/11 09:14:48;;;;;;;11.77;7.25;;;17.10;86.50;;;15.57;53.15;99841.00;10373553;28;96764;-90
2023/04/11 09:19:51;;;;;;;12.98;9.85;;;17.00;86.00;;;15.59;54.10;99833.59;10356385;28;96465;-90
2023/04/11 09:25:04;;;;;;;10.80;7.80;;;17.00;86.20;;;15.84;53.11;99820.38;10380302;28;96880;-90
2023/04/11 09:30:25;;;;;;;10.43;7.75;;;17.20;86.00;;;16.26;52.11;99807.44;10416267;28;96903;-90
2023/04/11 09:35:28;;;;;;;12.65;8.40;;;17.50;84.70;;;16.43;51.10;99797.00;10380853;28;96609;-91
2023/04/11 09:40:42;;;;;;;8.55;6.15;;;17.70;82.40;;;16.73;51.47;99802.59;10380379;28;96552;-92
2023/04/11 09:45:45;;;;;;;9.57;6.70;;;17.90;82.00;;;17.33;49.22;99803.78;10399772;28;96664;-91
2023/04/11 09:50:56;;;;;;;14.02;7.03;;;18.40;80.50;;;18.13;48.13;99789.47;10404627;28;96530;-91
2023/04/11 09:56:01;;;;;;;9.07;6.82;;;19.20;79.00;;;18.91;46.43;99761.63;10402012;28;96498;-91
2023/04/11 10:01:07;;;;;;;10.77;6.85;;;19.90;77.00;;;19.54;44.57;99758.19;10414407;28;98278;-92
2023/04/11 10:06:30;;;;;;;10.00;7.53;;;20.50;74.00;;;19.64;43.31;99754.94;10399479;28;96548;-91
2023/04/11 10:11:33;;;;;;;10.23;7.55;;;20.70;71.00;;;19.47;43.18;99739.44;10356887;28;96825;-91
2023/04/11 10:17:20;;;;;;;9.40;7.45;;;20.60;69.20;;;19.49;43.65;99734.66;10397363;28;96633;-91
2023/04/11 10:22:45;;;;;;;8.73;6.70;;;20.60;69.00;;;19.77;42.11;99719.59;10378078;28;96365;-91
2023/04/11 10:27:53;;;;;;;13.20;8.80;;;20.90;66.20;;;19.59;42.13;99715.19;10393544;28;98299;-95
2023/04/11 10:33:30;;;;;;;17.30;12.00;;;21.10;64.80;;;19.65;41.21;99702.66;10439244;28;96829;-96
2023/04/11 10:38:39;;;;;;;13.38;7.47;;;21.40;63.80;;;19.87;40.09;99700.94;10392806;22;96690;-88
2023/04/11 10:43:44;;;;;;;9.23;6.85;;;21.70;61.70;;;19.96;38.87;99691.38;10377966;28;96944;-88
2023/04/11 10:49:02;;;;;;;10.98;7.50;;;21.70;60.70;;;20.23;40.50;99688.09;10390502;28;97783;-89
2023/04/11 10:54:05;;;;;;;12.00;7.13;;;21.80;60.70;;;21.01;39.24;99679.09;10387750;28;96567;-89
2023/04/11 10:59:30;;;;;;;13.30;8.05;;;22.40;60.40;;;21.33;36.63;99660.38;10378258;28;96562;-88
2023/04/11 11:04:39;;;;;;;9.13;7.28;;;23.10;56.60;;;21.92;37.03;99651.56;10404122;28;96694;-89
2023/04/11 11:09:49;;;;;;;8.13;6.35;;;23.60;57.30;;;22.37;34.34;99650.34;10372969;28;96901;-89
2023/04/11 11:14:54;;;;;;;7.20;5.50;;;24.20;53.80;;;22.85;30.98;99640.41;10405728;28;96727;-89
2023/04/11 11:19:57;;;;;;;5.68;4.63;;;24.60;51.00;;;22.89;30.03;99636.94;10380906;28;96544;-90
2023/04/11 11:25:08;;;;;;;4.57;3.65;;;24.80;49.20;;;22.53;29.93;99616.91;10388183;28;96608;-89
2023/04/11 11:30:12;;;;;;;4.88;3.80;;;24.40;48.00;;;22.37;29.78;99616.00;10401693;28;96491;-88
2023/04/11 11:35:15;;;;;;;7.22;4.75;;;24.20;47.00;;;21.74;31.16;99622.19;10405446;28;96414;-88
2023/04/11 11:40:21;;;;;;;6.90;5.70;;;23.90;46.90;;;21.67;31.41;99626.97;10424836;27;96496;-89
2023/04/11 11:45:24;;;;;;;7.88;5.43;;;23.60;47.40;;;21.36;33.01;99630.16;10369441;28;97691;-89
2023/04/11 11:50:33;;;;;;;7.70;6.15;;;23.10;48.60;;;21.19;33.76;99620.44;10417906;28;98731;-89
2023/04/11 11:55:36;;;;;;;10.90;6.07;;;23.00;49.30;;;21.73;32.23;99615.13;10392284;28;96435;-90
2023/04/11 12:00:40;;;;;;;7.60;6.07;;;23.60;49.00;;;21.98;32.60;99607.25;10385469;28;98945;-89
2023/04/11 12:05:43;;;;;;;7.72;5.85;;;23.90;48.40;;;21.32;32.59;99618.19;10386486;28;96541;-88
2023/04/11 12:10:49;;;;;;;9.07;6.95;;;23.20;47.90;;;20.40;34.22;99624.19;10386134;28;96357;-87
2023/04/11 12:15:55;;;;;;;11.55;6.82;;;22.40;49.50;;;19.80;35.86;99619.38;10367382;28;96718;-88
2023/04/11 12:20:58;;;;;;;7.80;5.95;;;21.60;51.10;;;19.56;35.58;99620.53;10365849;28;96567;-89
2023/04/11 12:26:01;;;;;;;7.13;5.13;;;21.30;51.20;;;19.81;36.21;99615.63;10383992;28;96868;-88
2023/04/11 12:31:05;;;;;;;8.02;6.22;;;21.40;51.70;;;20.15;36.06;99615.66;10393652;28;97245;-85
2023/04/11 12:36:09;;;;;;;8.75;6.57;;;22.00;51.50;;;20.44;34.76;99609.09;10363427;28;96483;-87
2023/04/11 12:41:12;;;;;;;9.25;6.70;;;22.30;50.70;;;20.26;35.14;99598.56;10383421;27;98331;-86
2023/04/11 12:46:35;;;;;;;8.63;6.80;;;22.10;50.50;;;19.92;35.91;99592.38;10370464;28;98358;-85
2023/04/11 12:51:38;;;;;;;8.68;6.65;;;21.80;50.60;;;19.58;36.74;99594.13;10395533;28;96616;-86
2023/04/11 12:56:41;;;;;;;8.48;7.05;;;21.30;51.60;;;18.98;37.85;99600.78;10375659;28;97150;-84
2023/04/11 13:01:45;;;;;;;8.88;7.03;;;20.80;52.50;;;18.38;38.65;99585.69;10398476;28;96723;-86
2023/04/11 13:06:51;;;;;;;8.77;5.97;;;20.00;53.50;;;18.08;39.97;99576.91;10382441;28;96675;-86
2023/04/11 13:11:55;;;;;;;16.50;12.82;;;19.70;54.60;;;17.99;40.04;99573.72;10397103;28;96847;-86
2023/04/11 13:16:58;;;;;;;10.15;7.80;;;19.50;55.20;;;17.82;39.92;99554.78;10396803;28;96656;-86
2023/04/11 13:22:01;;;;;;;8.90;6.65;;;19.30;55.20;;;17.69;39.97;99560.31;10393416;28;98439;-86
2023/04/11 13:27:05;;;;;;;7.10;5.88;;;19.00;55.50;;;17.58;40.59;99547.69;10396774;28;97604;-85
2023/04/11 13:32:07;;;;;;;7.60;5.60;;;18.90;55.70;;;17.45;39.02;99543.28;10416569;28;96586;-85
2023/04/11 13:37:10;;;;;;;6.75;5.05;;;18.80;55.00;;;17.34;37.92;99541.41;10414725;28;96531;-85
2023/04/11 13:42:13;;;;;;;9.13;6.72;;;18.70;54.10;;;17.21;38.70;99536.19;10396306;28;96846;-85
2023/04/11 13:47:16;;;;;;;8.10;5.10;;;18.60;54.30;;;17.15;39.48;99527.19;10398816;28;96590;-85
2023/04/11 13:52:21;;;;;;;6.38;4.35;;;18.50;54.90;;;17.14;38.55;99533.59;10383105;28;96526;-84
2023/04/11 13:57:24;;;;;;;6.88;3.95;;;18.50;54.50;;;16.94;37.60;99531.19;10383021;28;96633;-84
2023/04/11 14:02:27;;;;;;;6.90;4.32;;;18.30;53.30;;;16.79;37.39;99536.94;10376996;27;97443;-84
2023/04/11 14:07:31;;;;;;;9.43;6.03;;;18.20;53.10;;;16.60;38.93;99549.47;10394132;28;97247;-85
2023/04/11 14:12:33;;;;;;;6.22;4.20;;;17.90;54.10;;;16.55;40.05;99545.81;10397775;28;96578;-84
2023/04/11 14:17:36;;;;;;;6.30;4.43;;;17.90;55.70;;;16.39;40.64;99551.78;10397204;28;96708;-85
2023/04/11 14:22:41;;;;;;;6.60;4.80;;;17.70;56.10;;;16.25;41.65;99556.44;10395528;28;96681;-86
2023/04/11 14:27:45;;;;;;;6.53;4.47;;;17.60;56.90;;;16.08;42.24;99558.06;10380908;28;98847;-84
2023/04/11 14:32:48;;;;;;;6.57;4.78;;;17.40;57.60;;;15.75;43.27;99570.66;10396289;27;97138;-83
2023/04/11 14:37:51;;;;;;;11.75;5.53;;;17.10;58.30;;;15.52;44.66;99573.03;10377005;28;98690;-84
2023/04/11 14:42:58;;;;;;;11.60;6.18;;;16.90;59.60;;;15.25;46.19;99581.22;10392736;28;96645;-80
2023/04/11 14:48:01;;;;;;;7.47;5.10;;;16.60;61.50;;;15.00;47.57;99577.63;10386765;27;98489;-85
2023/04/11 14:53:04;;;;;;;9.40;4.43;;;16.40;63.10;;;14.75;49.46;99587.34;10400001;28;98334;-85
2023/04/11 14:58:07;;;;;;;5.22;3.33;;;16.20;64.90;;;14.47;50.48;99588.44;10378098;28;97734;-84
2023/04/11 15:03:11;;;;;;;4.78;2.53;;;15.80;66.50;;;14.18;52.38;99601.19;10378994;28;96560;-85
2023/04/11 15:08:15;;;;;;;4.40;2.42;;;15.60;68.30;;;13.80;54.38;99602.81;10361632;28;96733;-85
2023/04/11 15:13:19;;;;;;;5.40;3.03;;;15.20;70.60;;;13.42;56.75;99615.84;10395144;28;96609;-84
2023/04/11 15:18:25;;;;;;;9.20;4.10;;;14.80;73.40;;;12.98;60.85;99628.56;10400323;28;96633;-84
2023/04/11 15:23:28;;;;;;;234.40;76.40;;;14.40;77.30;;;12.29;66.55;99642.66;10382035;28;98592;-85
2023/04/11 15:28:35;;;;;;;14.60;7.53;;;13.80;83.70;;;11.74;72.01;99649.47;10407020;28;96554;-87
2023/04/11 15:33:38;;;;;;;11.10;6.87;;;13.20;91.30;;;11.28;76.50;99648.94;10364035;28;97354;-85
2023/04/11 15:38:41;;;;;;;8.10;5.83;;;12.70;99.00;;;10.82;79.43;99659.78;10398214;28;96413;-83
2023/04/11 15:43:44;;;;;;;7.27;4.57;;;12.30;99.90;;;10.52;82.89;99658.09;10384108;27;96621;-84
2023/04/11 15:48:47;;;;;;;7.13;3.60;;;12.00;99.90;;;10.28;84.87;99667.09;10402587;28;97167;-81
2023/04/11 15:53:50;;;;;;;5.97;4.10;;;11.70;99.90;;;10.08;86.63;99664.91;10420265;27;96604;-83
2023/04/11 15:58:53;;;;;;;8.13;5.07;;;11.50;99.90;;;9.93;87.91;99659.53;10415606;28;98112;-81
2023/04/11 16:03:56;;;;;;;8.60;5.23;;;11.30;99.90;;;9.82;89.17;99661.75;10381912;28;96804;-82
2023/04/11 16:09:00;;;;;;;15.33;8.17;;;11.20;99.90;;;9.77;90.25;99643.69;10385020;28;96470;-81
2023/04/11 16:14:03;;;;;;;18.27;10.20;;;11.20;99.90;;;9.75;90.39;99640.41;10418275;28;98014;-82
2023/04/11 16:19:06;;;;;;;10.10;6.30;;;11.10;99.90;;;9.77;90.76;99635.75;10398493;28;96562;-83
2023/04/11 16:24:09;;;;;;;8.13;4.17;;;11.20;99.90;;;9.82;90.81;99633.38;10373239;28;96481;-83
2023/04/11 16:29:12;;;;;;;5.00;2.97;;;11.20;99.90;;;9.89;91.01;99621.06;10384535;28;97711;-83
2023/04/11 16:34:16;;;;;;;6.23;2.80;;;11.30;99.90;;;9.93;91.07;99622.38;10398129;28;96698;-83
2023/04/11 16:39:19;;;;;;;3.37;2.23;;;11.40;99.90;;;9.95;91.09;99616.06;10394353;28;96578;-83
2023/04/11 16:44:22;;;;;;;4.33;2.50;;;11.40;99.90;;;9.95;90.87;99616.06;10381800;28;97476;-82
2023/04/11 16:49:25;;;;;;;3.63;2.50;;;11.40;99.90;;;9.96;91.07;99609.75;10378433;28;98367;-82
2023/04/11 16:54:29;;;;;;;12.40;9.00;;;11.40;99.90;;;10.01;91.03;99610.03;10382402;28;97307;-83
2023/04/11 16:59:32;;;;;;;5.73;3.73;;;11.50;99.90;;;10.09;91.11;99605.50;10387048;28;96517;-83
2023/04/11 17:04:35;;;;;;;5.33;3.30;;;11.60;99.90;;;10.17;91.09;99597.44;10400755;28;96468;-83
2023/04/11 17:09:40;;;;;;;3.47;2.57;;;11.70;99.90;;;10.29;90.81;99603.19;10402534;28;96484;-83
2023/04/11 17:14:44;;;;;;;5.37;3.13;;;11.80;99.90;;;10.33;90.24;99609.78;10399456;28;96631;-83
2023/04/11 17:19:47;;;;;;;7.20;3.77;;;11.90;99.90;;;10.35;90.07;99604.28;10360213;28;97721;-83
2023/04/11 17:24:50;;;;;;;5.53;2.77;;;11.90;99.90;;;10.34;89.56;99600.00;10384556;28;96385;-83
2023/04/11 17:29:53;;;;;;;5.60;3.00;;;11.90;99.90;;;10.31;89.29;99595.84;10397900;28;96582;-83
2023/04/11 17:34:56;;;;;;;5.37;3.00;;;11.80;99.90;;;10.30;88.62;99609.31;10398379;28;96451;-82
2023/04/11 17:39:59;;;;;;;4.43;2.60;;;11.80;99.90;;;10.24;88.33;99594.94;10398727;28;96490;-83
2023/04/11 17:45:06;;;;;;;6.10;3.17;;;11.80;99.90;;;10.16;88.36;99590.50;10382238;28;96484;-83
2023/04/11 17:50:20;;;;;;;7.70;4.63;;;11.70;99.90;;;10.07;88.60;99596.03;10394970;28;96940;-81
2023/04/11 17:55:23;;;;;;;13.20;5.63;;;11.60;99.90;;;9.94;89.12;99601.97;10392263;28;97366;-82
2023/04/11 18:00:29;;;;;;;8.73;6.20;;;11.50;99.90;;;9.86;89.75;99600.19;10361506;28;96572;-83
2023/04/11 18:05:38;;;;;;;9.90;6.63;;;11.30;99.90;;;9.83;89.47;99594.41;10409617;28;97356;-81
2023/04/11 18:10:41;;;;;;;10.30;6.40;;;11.30;99.90;;;9.85;89.17;99608.34;10359882;27;97568;-81
2023/04/11 18:15:44;;;;;;;10.60;7.23;;;11.20;99.90;;;9.83;88.04;99600.53;10395222;28;96539;-82
2023/04/11 18:20:47;;;;;;;12.73;8.20;;;11.20;99.90;;;9.77;88.15;99603.09;10373213;28;97458;-82
2023/04/11 18:25:51;;;;;;;12.10;7.90;;;11.20;99.90;;;9.68;87.99;99601.50;10413116;28;96491;-83
2023/04/11 18:30:54;;;;;;;15.63;9.17;;;11.10;99.90;;;9.58;87.83;99614.97;10379985;28;97468;-83
2023/04/11 18:35:57;;;;;;;13.40;6.13;;;11.00;99.90;;;9.47;87.18;99626.81;10376865;28;98358;-81
2023/04/11 18:41:02;;;;;;;8.97;6.27;;;10.90;99.90;;;9.39;86.01;99633.00;10359068;28;96638;-82
2023/04/11 18:46:09;;;;;;;8.80;5.43;;;10.80;99.90;;;9.31;86.27;99634.88;10380526;28;96672;-83
2023/04/11 18:51:12;;;;;;;8.43;5.53;;;10.80;99.90;;;9.24;86.36;99624.13;10414951;27;98466;-82
2023/04/11 18:56:18;;;;;;;7.57;5.13;;;10.70;99.90;;;9.20;86.31;99625.47;10368287;28;96622;-82
2023/04/11 19:01:21;;;;;;;7.83;5.10;;;10.70;99.90;;;9.18;86.07;99627.47;10400248;28;96675;-81
2023/04/11 19:06:25;;;;;;;8.13;5.00;;;10.60;99.90;;;9.17;85.60;99620.50;10382898;28;96563;-82
2023/04/11 19:11:27;;;;;;;7.43;4.47;;;10.60;99.90;;;9.11;84.98;99621.19;10386507;28;97607;-82
2023/04/11 19:16:35;;;;;;;6.73;4.30;;;10.50;99.90;;;8.98;84.49;99627.03;10383112;27;96468;-83
2023/04/11 19:21:38;;;;;;;10.33;5.37;;;10.40;99.90;;;8.85;84.46;99624.13;10372330;28;96618;-82
2023/04/11 19:26:44;;;;;;;7.17;4.23;;;10.40;99.90;;;8.74;84.20;99622.66;10386970;28;98153;-82
2023/04/11 19:31:49;;;;;;;10.47;5.67;;;10.20;99.90;;;8.67;84.57;99623.50;10382001;28;97791;-82
2023/04/11 19:36:53;;;;;;;8.43;5.20;;;10.10;99.90;;;8.61;84.95;99617.06;10376289;27;98586;-86
2023/04/11 19:41:56;;;;;;;8.27;5.17;;;10.10;99.90;;;8.60;85.16;99614.59;10394625;28;97334;-85
2023/04/11 19:46:59;;;;;;;9.10;5.17;;;10.10;99.90;;;8.57;85.09;99618.38;10365391;27;96592;-88
2023/04/11 19:52:02;;;;;;;8.40;5.40;;;10.10;99.90;;;8.54;85.02;99634.63;10409851;27;97505;-86
2023/04/11 19:57:06;;;;;;;8.63;5.53;;;10.00;99.90;;;8.47;84.60;99629.19;10381922;28;97489;-84
2023/04/11 20:02:09;;;;;;;11.03;5.93;;;9.90;99.90;;;8.39;84.69;99628.34;10402552;27;98493;-86
2023/04/11 20:07:12;;;;;;;10.87;5.77;;;9.80;99.90;;;8.37;84.04;99640.94;10404847;28;97276;-85
2023/04/11 20:12:15;;;;;;;9.60;5.83;;;9.80;99.90;;;8.28;84.84;99629.53;10388503;28;96413;-86
2023/04/11 20:17:18;;;;;;;10.87;6.23;;;9.80;99.90;;;8.27;85.08;99622.53;10385138;28;97004;-85
2023/04/11 20:22:22;;;;;;;12.07;6.53;;;9.70;99.90;;;8.32;84.93;99613.09;10370329;27;96592;-85
2023/04/11 20:27:26;;;;;;;9.57;5.90;;;9.70;99.90;;;8.35;84.31;99621.72;10384153;28;96923;-85
2023/04/11 20:32:29;;;;;;;7.80;4.77;;;9.80;99.90;;;8.35;83.81;99621.72;10423805;27;98267;-85
2023/04/11 20:37:34;;;;;;;6.57;3.93;;;9.80;99.90;;;8.21;83.52;99586.97;10406268;28;96553;-85
2023/04/11 20:42:41;;;;;;;4.17;2.77;;;9.70;99.90;;;8.13;82.87;99576.41;10383774;28;98178;-84
2023/04/11 20:47:46;;;;;;;5.13;2.27;;;9.60;99.90;;;8.07;82.74;99557.75;10382214;28;97234;-84
2023/04/11 20:52:51;;;;;;;3.67;2.43;;;9.50;99.90;;;8.01;82.52;99546.00;10380879;28;97943;-86
2023/04/11 20:57:54;;;;;;;5.33;2.40;;;9.50;99.90;;;7.97;81.45;99571.13;10378236;28;97445;-86
2023/04/11 21:02:57;;;;;;;3.33;1.60;;;9.50;99.90;;;7.93;80.68;99580.41;10410103;28;97117;-85
2023/04/11 21:08:00;;;;;;;3.07;1.50;;;9.40;99.90;;;7.85;79.76;99575.09;10401864;28;98397;-86